createdAt,value
2022-12-23T00:02:13.034Z,97496.35
2022-12-23T00:07:20.109Z,97495.54
2022-12-23T00:12:44.873Z,97496.86
2022-12-23T00:17:52.259Z,97499.98
2022-12-23T00:23:08.998Z,97503.38
2022-12-23T00:28:17.334Z,97501.15
2022-12-23T00:33:26.179Z,97504.45
2022-12-23T00:38:50.970Z,97507.39
2022-12-23T00:43:58.371Z,97512.54
2022-12-23T00:49:22.470Z,97521.58
2022-12-23T00:54:29.799Z,97529.86
2022-12-23T00:59:37.490Z,97534.55
2022-12-23T01:05:02.019Z,97526.17
2022-12-23T01:10:09.901Z,97525.90
2022-12-23T01:15:16.920Z,97512.06
2022-12-23T01:20:23.921Z,97514.64
2022-12-23T01:25:31.780Z,97516.57
2022-12-23T01:30:38.869Z,97516.57
2022-12-23T01:35:46.089Z,97516.36
2022-12-23T01:40:52.881Z,97518.27
2022-12-23T01:45:59.991Z,97523.92
2022-12-23T01:51:08.923Z,97520.10
2022-12-23T01:56:18.010Z,97516.94
2022-12-23T02:01:48.508Z,97522.21
2022-12-23T02:07:13.140Z,97525.88
2022-12-23T02:12:33.521Z,97541.64
2022-12-23T02:17:43.852Z,97551.64
2022-12-23T02:23:03.970Z,97552.75
2022-12-23T02:28:22.405Z,97557.04
2022-12-23T02:33:35.449Z,97557.77
2022-12-23T02:38:47.343Z,97553.20
2022-12-23T02:43:59.760Z,97555.76
2022-12-23T02:49:10.239Z,97551.50
2022-12-23T02:54:18.620Z,97547.48
2022-12-23T02:59:27.978Z,97551.61
2022-12-23T03:04:35.007Z,97546.29
2022-12-23T03:09:46.821Z,97546.69
2022-12-23T03:15:05.078Z,97556.36
2022-12-23T03:20:16.426Z,97553.92
2022-12-23T03:25:25.340Z,97544.90
2022-12-23T03:30:35.110Z,97536.48
2022-12-23T03:35:45.089Z,97533.95
2022-12-23T03:40:56.345Z,97536.74
2022-12-23T03:46:06.835Z,97537.21
2022-12-23T03:51:16.981Z,97539.63
2022-12-23T03:56:27.728Z,97540.64
2022-12-23T04:01:39.827Z,97544.42
2022-12-23T04:06:50.704Z,97541.67
2022-12-23T04:11:58.782Z,97530.70
2022-12-23T04:17:05.581Z,97529.94
2022-12-23T04:22:12.749Z,97524.31
2022-12-23T04:27:19.842Z,97512.64
2022-12-23T04:32:27.167Z,97502.15
2022-12-23T04:37:34.174Z,97492.90
2022-12-23T04:42:41.591Z,97489.72
2022-12-23T04:47:48.558Z,97493.30
2022-12-23T04:52:55.469Z,97494.08
2022-12-23T04:58:02.590Z,97493.93
2022-12-23T05:03:09.555Z,97492.19
2022-12-23T05:08:16.781Z,97497.66
2022-12-23T05:13:23.729Z,97498.73
2022-12-23T05:18:30.615Z,97501.44
2022-12-23T05:23:38.068Z,97500.38
2022-12-23T05:28:46.058Z,97503.75
2022-12-23T05:33:53.065Z,97510.27
2022-12-23T05:39:00.119Z,97503.44
2022-12-23T05:44:07.372Z,97503.93
2022-12-23T05:49:14.618Z,97503.56
2022-12-23T05:54:22.177Z,97500.94
2022-12-23T05:59:31.584Z,97493.21
2022-12-23T06:04:39.299Z,97486.18
2022-12-23T06:09:46.416Z,97493.14
2022-12-23T06:14:54.258Z,97489.84
2022-12-23T06:20:01.555Z,97483.06
2022-12-23T06:25:09.531Z,97481.95
2022-12-23T06:30:17.021Z,97494.35
2022-12-23T06:35:24.409Z,97494.27
2022-12-23T06:40:31.599Z,97495.70
2022-12-23T06:45:39.297Z,97498.88
2022-12-23T06:50:46.750Z,97497.02
2022-12-23T06:56:01.081Z,97492.38
2022-12-23T07:01:10.130Z,97490.38
2022-12-23T07:06:17.450Z,97497.11
2022-12-23T07:11:24.801Z,97492.88
2022-12-23T07:16:31.952Z,97489.80
2022-12-23T07:21:39.343Z,97494.90
2022-12-23T07:26:46.620Z,97501.25
2022-12-23T07:31:53.810Z,97507.06
2022-12-23T07:37:01.037Z,97509.48
2022-12-23T07:42:42.786Z,97505.06
2022-12-23T07:47:36.282Z,97503.42
2022-12-23T07:52:42.976Z,97504.45
2022-12-23T07:57:51.139Z,97504.56
2022-12-23T08:02:58.517Z,97498.67
2022-12-23T08:08:06.076Z,97494.35
2022-12-23T08:13:13.302Z,97491.19
2022-12-23T08:18:20.495Z,97488.42
2022-12-23T08:23:28.457Z,97476.19
2022-12-23T08:28:36.225Z,97478.14
2022-12-23T08:33:44.017Z,97472.81
2022-12-23T08:38:51.009Z,97473.16
2022-12-23T08:43:58.347Z,97461.11
2022-12-23T08:49:05.508Z,97464.48
2022-12-23T08:54:12.857Z,97457.80
2022-12-23T08:59:20.229Z,97453.56
2022-12-23T09:04:27.158Z,97446.37
2022-12-23T09:09:33.817Z,97445.46
2022-12-23T09:14:40.459Z,97440.12
2022-12-23T09:19:52.672Z,97434.89
2022-12-23T09:25:04.997Z,97423.13
2022-12-23T09:30:13.580Z,97420.98
2022-12-23T09:35:20.926Z,97412.93
2022-12-23T09:40:31.658Z,97406.59
2022-12-23T09:45:52.899Z,97398.95
2022-12-23T09:51:00.165Z,97395.88
2022-12-23T09:56:10.838Z,97391.48
2022-12-23T10:01:21.209Z,97386.08
2022-12-23T10:06:29.637Z,97371.60
2022-12-23T10:11:38.458Z,97369.52
2022-12-23T10:16:47.322Z,97359.80
2022-12-23T10:21:56.908Z,97365.23
2022-12-23T10:27:06.704Z,97368.05
2022-12-23T10:32:20.662Z,97366.08
2022-12-23T10:37:32.900Z,97367.23
2022-12-23T10:42:43.100Z,97366.33
2022-12-23T10:47:54.663Z,97364.93
2022-12-23T10:53:03.807Z,97369.73
2022-12-23T10:58:11.212Z,97365.41
2022-12-23T11:03:20.836Z,97361.75
2022-12-23T11:08:29.361Z,97361.31
2022-12-23T11:13:38.250Z,97358.30
2022-12-23T11:18:56.383Z,97360.09
2022-12-23T11:24:10.567Z,97360.10
2022-12-23T11:29:24.250Z,97360.03
2022-12-23T11:34:35.441Z,97361.05
2022-12-23T11:39:48.152Z,97364.13
2022-12-23T11:44:56.328Z,97366.94
2022-12-23T11:50:05.809Z,97362.38
2022-12-23T11:55:25.209Z,97359.03
2022-12-23T12:00:35.610Z,97359.15
2022-12-23T12:05:48.766Z,97355.27
2022-12-23T12:11:02.104Z,97366.56
2022-12-23T12:16:16.505Z,97370.01
2022-12-23T12:21:25.746Z,97366.89
2022-12-23T12:26:34.151Z,97365.70
2022-12-23T12:31:45.044Z,97366.48
2022-12-23T12:36:55.324Z,97358.52
2022-12-23T12:42:05.994Z,97362.73
2022-12-23T12:47:44.804Z,97368.14
2022-12-23T12:52:44.299Z,97370.13
2022-12-23T12:57:51.418Z,97369.66
2022-12-23T13:03:19.758Z,97372.30
2022-12-23T13:08:35.029Z,97380.42
2022-12-23T13:13:48.778Z,97385.96
2022-12-23T13:18:59.430Z,97392.45
2022-12-23T13:24:13.839Z,97401.27
2022-12-23T13:29:34.155Z,97399.56
2022-12-23T13:34:45.956Z,97405.48
2022-12-23T13:39:57.888Z,97408.71
2022-12-23T13:45:05.249Z,97415.89
2022-12-23T13:50:16.508Z,97420.33
2022-12-23T13:55:33.270Z,97423.11
2022-12-23T14:00:40.248Z,97428.85
2022-12-23T14:05:47.820Z,97426.08
2022-12-23T14:10:55.689Z,97417.76
2022-12-23T14:16:22.274Z,97422.04
2022-12-23T14:21:34.438Z,97425.01
2022-12-23T14:26:57.499Z,97426.70
2022-12-23T14:32:04.491Z,97430.82
2022-12-23T14:37:28.469Z,97429.33
2022-12-23T14:42:42.111Z,97434.44
2022-12-23T14:47:49.049Z,97428.85
2022-12-23T14:53:03.087Z,97432.02
2022-12-23T14:58:14.606Z,97433.03
2022-12-23T15:03:22.128Z,97429.85
2022-12-23T15:08:32.369Z,97423.94
2022-12-23T15:13:39.660Z,97434.95
2022-12-23T15:18:56.478Z,97441.91
2022-12-23T15:24:03.468Z,97439.30
2022-12-23T15:29:10.809Z,97439.84
2022-12-23T15:34:22.560Z,97449.45
2022-12-23T15:39:32.840Z,97443.75
2022-12-23T15:44:40.708Z,97449.23
2022-12-23T15:49:48.529Z,97443.80
2022-12-23T15:55:02.460Z,97435.27
2022-12-23T16:00:20.269Z,97436.34
2022-12-23T16:05:30.639Z,97432.59
2022-12-23T16:10:38.601Z,97441.48
2022-12-23T16:15:45.770Z,97448.23
2022-12-23T16:20:53.878Z,97442.27
2022-12-23T16:26:01.829Z,97429.56
2022-12-23T16:31:09.447Z,97426.41
2022-12-23T16:36:21.075Z,97427.71
2022-12-23T16:41:28.329Z,97430.81
2022-12-23T16:46:36.289Z,97422.46
2022-12-23T16:51:44.340Z,97416.19
2022-12-23T16:56:51.791Z,97417.83
2022-12-23T17:02:03.500Z,97417.27
2022-12-23T17:07:13.596Z,97408.16
2022-12-23T17:12:21.350Z,97404.85
2022-12-23T17:17:28.651Z,97415.67
2022-12-23T17:22:37.402Z,97420.86
2022-12-23T17:27:45.424Z,97424.27
2022-12-23T17:32:53.735Z,97422.11
2022-12-23T17:38:00.551Z,97436.35
2022-12-23T17:43:07.639Z,97445.48
2022-12-23T17:48:20.828Z,97449.21
2022-12-23T17:53:29.581Z,97447.89
2022-12-23T17:58:36.507Z,97453.10
2022-12-23T18:03:43.989Z,97455.17
2022-12-23T18:08:51.229Z,97444.81
2022-12-23T18:13:58.428Z,97445.20
2022-12-23T18:19:05.638Z,97449.23
2022-12-23T18:24:12.884Z,97447.38
2022-12-23T18:29:20.047Z,97454.11
2022-12-23T18:34:27.049Z,97453.56
2022-12-23T18:39:33.691Z,97455.36
2022-12-23T18:44:40.616Z,97454.87
2022-12-23T18:49:47.479Z,97458.93
2022-12-23T18:54:54.201Z,97462.48
2022-12-23T19:00:01.311Z,97462.55
2022-12-23T19:05:09.380Z,97452.64
2022-12-23T19:10:19.179Z,97458.70
2022-12-23T19:15:26.149Z,97458.33
2022-12-23T19:20:33.129Z,97459.77
2022-12-23T19:25:41.925Z,97455.13
2022-12-23T19:30:49.244Z,97457.85
2022-12-23T19:35:56.533Z,97455.52
2022-12-23T19:41:03.775Z,97454.86
2022-12-23T19:46:11.828Z,97450.81
2022-12-23T19:51:18.803Z,97445.40
2022-12-23T19:56:26.431Z,97452.91
2022-12-23T20:01:33.371Z,97464.42
2022-12-23T20:06:41.477Z,97459.40
2022-12-23T20:11:49.194Z,97452.60
2022-12-23T20:16:56.199Z,97434.48
2022-12-23T20:22:03.299Z,97414.88
2022-12-23T20:27:12.580Z,97411.04
2022-12-23T20:32:21.261Z,97409.48
2022-12-23T20:37:28.564Z,97395.28
2022-12-23T20:42:35.739Z,97392.35
2022-12-23T20:47:43.029Z,97381.05
2022-12-23T20:52:50.218Z,97386.08
2022-12-23T20:57:57.669Z,97393.20
2022-12-23T21:03:10.267Z,97390.05
2022-12-23T21:08:18.239Z,97384.70
2022-12-23T21:13:27.750Z,97384.54
2022-12-23T21:18:34.733Z,97385.48
2022-12-23T21:23:42.529Z,97385.17
2022-12-23T21:28:53.225Z,97378.48
2022-12-23T21:34:00.784Z,97369.50
2022-12-23T21:39:08.701Z,97367.90
2022-12-23T21:44:16.403Z,97373.94
2022-12-23T21:49:23.529Z,97373.61
2022-12-23T21:54:30.748Z,97371.59
2022-12-23T21:59:37.879Z,97375.65
2022-12-23T22:04:44.957Z,97375.80
2022-12-23T22:09:51.877Z,97374.49
2022-12-23T22:14:58.918Z,97370.39
2022-12-23T22:20:06.198Z,97362.33
2022-12-23T22:25:13.497Z,97357.08
2022-12-23T22:30:21.017Z,97354.37
2022-12-23T22:35:28.376Z,97352.03
2022-12-23T22:40:35.419Z,97344.46
2022-12-23T22:45:42.485Z,97349.12
2022-12-23T22:50:50.055Z,97352.36
2022-12-23T22:56:00.009Z,97342.77
2022-12-23T23:01:07.522Z,97341.98
2022-12-23T23:06:14.242Z,97343.00
2022-12-23T23:11:21.125Z,97348.11
2022-12-23T23:16:28.197Z,97338.45
2022-12-23T23:21:35.229Z,97334.40
2022-12-23T23:26:42.102Z,97328.13
2022-12-23T23:31:49.146Z,97318.81
2022-12-23T23:36:56.292Z,97313.56
2022-12-23T23:42:03.139Z,97309.86
2022-12-23T23:47:09.879Z,97301.66
2022-12-23T23:52:16.668Z,97297.56
2022-12-23T23:57:23.958Z,97295.09
